createdAt,value
2018-11-27T00:00:28.064Z,21.67
2018-11-27T00:02:58.990Z,24.40
2018-11-27T00:05:28.420Z,22.17
2018-11-27T00:08:03.287Z,23.17
2018-11-27T00:10:33.675Z,23.07
2018-11-27T00:13:02.720Z,26.00
2018-11-27T00:15:31.735Z,24.23
2018-11-27T00:18:00.751Z,23.83
2018-11-27T00:20:29.818Z,22.57
2018-11-27T00:22:58.815Z,20.37
2018-11-27T00:25:27.851Z,20.27
2018-11-27T00:27:56.883Z,18.70
2018-11-27T00:30:25.903Z,18.97
2018-11-27T00:32:54.857Z,20.57
2018-11-27T00:35:23.881Z,19.13
2018-11-27T00:37:52.956Z,20.73
2018-11-27T00:40:23.074Z,24.30
2018-11-27T00:42:52.090Z,23.60
2018-11-27T00:45:21.625Z,22.83
2018-11-27T00:47:51.401Z,22.83
2018-11-27T00:50:21.558Z,19.87
2018-11-27T00:52:50.514Z,19.40
2018-11-27T00:55:19.537Z,19.83
2018-11-27T00:57:49.975Z,20.50
2018-11-27T01:00:20.806Z,24.23
2018-11-27T01:02:49.462Z,27.97
2018-11-27T01:05:20.731Z,29.30
2018-11-27T01:07:49.852Z,27.07
2018-11-27T01:10:26.382Z,27.40
2018-11-27T01:12:55.409Z,25.23
2018-11-27T01:15:24.459Z,25.20
2018-11-27T01:17:55.673Z,26.77
2018-11-27T01:20:25.247Z,24.13
2018-11-27T01:22:54.395Z,22.53
2018-11-27T01:25:23.411Z,23.07
2018-11-27T01:27:52.406Z,22.87
2018-11-27T01:30:22.564Z,24.57
2018-11-27T01:32:51.849Z,23.77
2018-11-27T01:35:22.409Z,22.27
2018-11-27T01:37:52.639Z,23.73
2018-11-27T01:40:26.689Z,21.20
2018-11-27T01:42:56.820Z,21.03
2018-11-27T01:45:26.215Z,19.37
2018-11-27T01:47:55.317Z,18.17
2018-11-27T01:50:24.353Z,18.77
2018-11-27T01:52:53.371Z,17.63
2018-11-27T01:55:23.004Z,17.20
2018-11-27T01:57:52.219Z,19.97
2018-11-27T02:00:28.875Z,17.20
2018-11-27T02:02:59.008Z,17.60
2018-11-27T02:05:28.399Z,17.57
2018-11-27T02:07:57.456Z,18.00
2018-11-27T02:10:26.552Z,20.37
2018-11-27T02:13:00.935Z,21.87
2018-11-27T02:15:27.567Z,21.23
2018-11-27T02:17:56.680Z,18.70
2018-11-27T02:20:25.776Z,20.77
2018-11-27T02:22:54.367Z,20.90
2018-11-27T02:25:25.391Z,22.13
2018-11-27T02:27:54.409Z,20.87
2018-11-27T02:30:24.173Z,22.03
2018-11-27T02:32:53.225Z,20.00
2018-11-27T02:35:23.243Z,22.57
2018-11-27T02:37:55.222Z,22.03
2018-11-27T02:40:24.263Z,21.27
2018-11-27T02:42:53.308Z,21.07
2018-11-27T02:45:23.367Z,21.23
2018-11-27T02:47:53.034Z,21.20
2018-11-27T02:50:23.221Z,21.67
2018-11-27T02:52:52.231Z,21.00
2018-11-27T02:55:22.186Z,20.33
2018-11-27T02:57:50.813Z,20.90
2018-11-27T03:00:20.113Z,20.87
2018-11-27T03:02:49.197Z,20.77
2018-11-27T03:05:19.962Z,19.60
2018-11-27T03:07:48.972Z,18.73
2018-11-27T03:10:17.978Z,19.40
2018-11-27T03:12:46.991Z,19.23
2018-11-27T03:15:17.124Z,22.03
2018-11-27T03:17:46.129Z,20.97
2018-11-27T03:20:16.384Z,22.07
2018-11-27T03:22:45.433Z,20.17
2018-11-27T03:25:18.455Z,21.27
2018-11-27T03:27:48.448Z,20.87
2018-11-27T03:30:18.591Z,21.47
2018-11-27T03:32:47.633Z,19.27
2018-11-27T03:35:20.621Z,18.70
2018-11-27T03:37:49.855Z,18.37
2018-11-27T03:40:22.449Z,18.23
2018-11-27T03:42:51.538Z,18.50
2018-11-27T03:45:20.708Z,18.03
2018-11-27T03:47:49.753Z,17.37
2018-11-27T03:50:22.862Z,17.80
2018-11-27T03:52:51.865Z,20.00
2018-11-27T03:55:20.904Z,17.40
2018-11-27T03:57:50.575Z,16.37
2018-11-27T04:00:22.314Z,16.23
2018-11-27T04:02:53.481Z,16.83
2018-11-27T04:05:23.192Z,17.03
2018-11-27T04:07:52.261Z,15.93
2018-11-27T04:10:21.238Z,16.33
2018-11-27T04:12:50.213Z,16.50
2018-11-27T04:15:19.302Z,16.03
2018-11-27T04:17:48.276Z,15.83
2018-11-27T04:20:17.303Z,15.93
2018-11-27T04:22:46.410Z,14.40
2018-11-27T04:25:16.468Z,14.53
2018-11-27T04:27:46.159Z,15.37
2018-11-27T04:30:17.756Z,15.10
2018-11-27T04:32:46.888Z,14.70
2018-11-27T04:35:16.827Z,15.07
2018-11-27T04:37:46.058Z,17.40
2018-11-27T04:40:22.557Z,16.27
2018-11-27T04:42:51.560Z,14.97
2018-11-27T04:45:22.165Z,15.13
2018-11-27T04:47:51.318Z,15.03
2018-11-27T04:50:20.556Z,13.07
2018-11-27T04:52:49.632Z,14.97
2018-11-27T04:55:19.929Z,14.07
2018-11-27T04:57:49.784Z,13.40
2018-11-27T05:00:19.928Z,12.93
2018-11-27T05:02:49.110Z,12.70
2018-11-27T05:05:18.521Z,12.73
2018-11-27T05:07:47.664Z,13.27
2018-11-27T05:10:18.373Z,12.80
2018-11-27T05:12:47.039Z,12.40
2018-11-27T05:15:23.279Z,12.20
2018-11-27T05:17:55.078Z,11.87
2018-11-27T05:20:24.144Z,11.87
2018-11-27T05:22:53.199Z,12.03
2018-11-27T05:25:22.199Z,11.77
2018-11-27T05:27:53.299Z,13.00
2018-11-27T05:30:24.492Z,13.25
2018-11-27T05:32:53.531Z,13.37
2018-11-27T05:35:30.175Z,16.67
2018-11-27T05:38:00.861Z,16.37
2018-11-27T05:40:29.949Z,15.03
2018-11-27T05:43:00.511Z,19.83
2018-11-27T05:45:29.575Z,15.40
2018-11-27T05:47:58.555Z,13.77
2018-11-27T05:50:27.189Z,13.20
2018-11-27T05:52:56.255Z,12.63
2018-11-27T05:55:25.326Z,11.37
2018-11-27T05:57:55.385Z,12.20
2018-11-27T06:00:26.356Z,10.77
2018-11-27T06:02:57.586Z,11.47
2018-11-27T06:05:27.029Z,10.93
2018-11-27T06:07:56.110Z,13.10
2018-11-27T06:10:25.481Z,10.57
2018-11-27T06:12:54.553Z,12.20
2018-11-27T06:15:24.487Z,13.20
2018-11-27T06:17:53.806Z,11.47
2018-11-27T06:20:23.251Z,12.10
2018-11-27T06:22:52.950Z,11.93
2018-11-27T06:25:23.044Z,11.80
2018-11-27T06:27:59.006Z,11.93
2018-11-27T06:30:28.809Z,10.27
2018-11-27T06:32:57.627Z,12.03
2018-11-27T06:35:26.915Z,14.70
2018-11-27T06:37:55.942Z,13.07
2018-11-27T06:40:27.387Z,18.97
2018-11-27T06:42:55.982Z,13.17
2018-11-27T06:45:25.027Z,14.73
2018-11-27T06:47:54.298Z,16.47
2018-11-27T06:50:23.592Z,11.87
2018-11-27T06:52:52.619Z,10.73
2018-11-27T06:55:22.799Z,10.87
2018-11-27T06:57:51.918Z,11.53
2018-11-27T07:00:22.258Z,11.10
2018-11-27T07:02:51.298Z,11.73
2018-11-27T07:05:20.345Z,10.50
2018-11-27T07:07:49.445Z,11.13
2018-11-27T07:10:22.395Z,14.70
2018-11-27T07:12:52.832Z,16.23
2018-11-27T07:15:23.083Z,12.27
2018-11-27T07:17:52.094Z,11.90
2018-11-27T07:20:20.764Z,13.03
2018-11-27T07:22:49.734Z,14.20
2018-11-27T07:25:18.749Z,14.47
2018-11-27T07:27:48.836Z,16.17
2018-11-27T07:30:18.773Z,20.27
2018-11-27T07:32:47.852Z,25.63
2018-11-27T07:35:17.561Z,16.23
2018-11-27T07:37:46.730Z,15.27
2018-11-27T07:40:19.808Z,19.27
2018-11-27T07:42:50.093Z,16.13
2018-11-27T07:45:20.474Z,17.83
2018-11-27T07:47:49.497Z,15.80
2018-11-27T07:50:18.782Z,17.87
2018-11-27T07:52:47.818Z,17.80
2018-11-27T07:55:17.914Z,15.47
2018-11-27T07:57:46.990Z,17.03
2018-11-27T08:00:19.521Z,17.30
2018-11-27T08:02:50.403Z,17.23
2018-11-27T08:05:20.640Z,28.47
2018-11-27T08:07:51.958Z,17.03
2018-11-27T08:10:22.036Z,17.97
2018-11-27T08:12:51.162Z,18.03
2018-11-27T08:15:23.331Z,18.90
2018-11-27T08:17:52.528Z,22.53
2018-11-27T08:20:22.847Z,23.90
2018-11-27T08:22:51.846Z,21.90
2018-11-27T08:25:20.903Z,21.17
2018-11-27T08:27:50.012Z,13.37
2018-11-27T08:30:20.126Z,18.40
2018-11-27T08:32:49.221Z,15.80
2018-11-27T08:35:27.035Z,16.17
2018-11-27T08:37:57.283Z,11.50
2018-11-27T08:40:27.333Z,11.07
2018-11-27T08:42:56.333Z,11.33
2018-11-27T08:45:25.858Z,10.97
2018-11-27T08:47:55.753Z,10.80
2018-11-27T08:50:26.707Z,13.30
2018-11-27T08:53:01.043Z,8.07
2018-11-27T08:55:31.809Z,8.43
2018-11-27T08:58:01.446Z,8.13
2018-11-27T09:00:30.464Z,7.17
2018-11-27T09:02:59.475Z,7.10
2018-11-27T09:05:28.641Z,9.83
2018-11-27T09:07:57.735Z,7.37
2018-11-27T09:10:26.774Z,8.83
2018-11-27T09:12:55.817Z,7.85
2018-11-27T09:15:24.812Z,7.92
2018-11-27T09:18:02.452Z,9.03
2018-11-27T09:20:31.400Z,10.18
2018-11-27T09:23:00.482Z,11.23
2018-11-27T09:25:29.537Z,7.33
2018-11-27T09:27:58.550Z,7.93
2018-11-27T09:30:27.596Z,7.60
2018-11-27T09:32:57.101Z,6.20
2018-11-27T09:35:26.080Z,6.73
2018-11-27T09:37:55.165Z,6.47
2018-11-27T09:43:23.935Z,6.07
2018-11-27T09:45:52.957Z,8.33
2018-11-27T09:48:22.053Z,5.50
2018-11-27T09:50:51.132Z,6.08
2018-11-27T09:53:20.161Z,7.33
2018-11-27T09:55:49.252Z,5.40
2018-11-27T09:58:18.440Z,5.95
2018-11-27T10:00:47.432Z,5.20
2018-11-27T10:03:16.857Z,5.97
2018-11-27T10:05:46.968Z,5.47
2018-11-27T10:08:16.358Z,5.20
2018-11-27T10:10:46.483Z,5.30
2018-11-27T10:13:17.529Z,8.05
2018-11-27T10:15:46.606Z,5.77
2018-11-27T10:18:15.676Z,9.57
2018-11-27T10:20:46.716Z,6.67
2018-11-27T10:23:15.992Z,7.92
2018-11-27T10:25:45.022Z,7.33
2018-11-27T10:28:14.201Z,5.93
2018-11-27T10:30:45.318Z,10.77
2018-11-27T10:33:14.365Z,5.30
2018-11-27T10:35:47.132Z,6.03
2018-11-27T10:38:16.323Z,7.43
2018-11-27T10:40:45.891Z,6.10
2018-11-27T10:43:19.721Z,5.27
2018-11-27T10:45:44.278Z,6.87
2018-11-27T10:48:13.360Z,8.27
2018-11-27T10:50:42.400Z,5.67
2018-11-27T10:53:12.530Z,7.37
2018-11-27T10:55:42.576Z,8.43
2018-11-27T10:58:11.642Z,7.43
2018-11-27T11:00:46.541Z,7.80
2018-11-27T11:03:46.508Z,7.60
2018-11-27T11:06:15.597Z,7.63
2018-11-27T11:08:45.749Z,8.63
2018-11-27T11:11:14.912Z,9.80
2018-11-27T11:13:45.011Z,10.77
2018-11-27T11:16:13.699Z,7.60
2018-11-27T11:18:42.927Z,6.50
2018-11-27T11:21:13.095Z,6.93
2018-11-27T11:23:42.320Z,7.53
2018-11-27T11:26:11.477Z,6.60
2018-11-27T11:28:40.575Z,7.13
2018-11-27T11:31:10.108Z,9.83
2018-11-27T11:33:39.306Z,7.67
2018-11-27T11:36:09.443Z,8.70
2018-11-27T11:38:38.551Z,7.17
2018-11-27T11:41:07.826Z,7.90
2018-11-27T11:43:36.930Z,7.03
2018-11-27T11:46:06.622Z,8.10
2018-11-27T11:48:35.674Z,8.38
2018-11-27T11:51:05.150Z,9.17
2018-11-27T11:53:34.209Z,8.10
2018-11-27T11:56:03.458Z,7.23
2018-11-27T11:58:32.590Z,9.40
2018-11-27T12:01:01.692Z,7.43
2018-11-27T12:03:30.806Z,8.33
2018-11-27T12:05:59.911Z,8.30
2018-11-27T12:08:30.015Z,7.63
2018-11-27T12:11:00.182Z,7.80
2018-11-27T12:13:29.190Z,8.83
2018-11-27T12:15:58.318Z,9.33
2018-11-27T12:18:27.401Z,9.70
2018-11-27T12:20:57.603Z,9.60
2018-11-27T12:23:26.702Z,9.37
2018-11-27T12:25:55.970Z,8.07
2018-11-27T12:28:25.123Z,9.20
2018-11-27T12:30:54.207Z,8.67
2018-11-27T12:33:23.275Z,8.60
2018-11-27T12:35:52.306Z,10.10
2018-11-27T12:38:21.465Z,8.47
2018-11-27T12:40:50.539Z,8.23
2018-11-27T12:43:19.583Z,8.33
2018-11-27T12:45:48.680Z,8.90
2018-11-27T12:48:17.832Z,10.90
2018-11-27T12:50:48.760Z,9.30
2018-11-27T12:53:19.908Z,7.60
2018-11-27T12:55:50.093Z,8.00
2018-11-27T12:58:19.272Z,9.53
2018-11-27T13:00:47.944Z,8.63
2018-11-27T13:03:16.978Z,8.93
2018-11-27T13:05:46.878Z,7.37
2018-11-27T13:08:19.142Z,8.20
2018-11-27T13:10:48.366Z,8.37
2018-11-27T13:13:17.445Z,10.40
2018-11-27T13:15:47.565Z,8.07
2018-11-27T13:18:16.590Z,9.23
2018-11-27T13:20:46.707Z,9.03
2018-11-27T13:23:15.755Z,8.93
2018-11-27T13:25:45.042Z,10.00
2018-11-27T13:28:14.612Z,11.43
2018-11-27T13:30:50.035Z,9.10
2018-11-27T13:33:26.772Z,10.17
2018-11-27T13:35:55.927Z,8.50
2018-11-27T13:38:26.230Z,9.03
2018-11-27T13:40:55.375Z,7.37
2018-11-27T13:43:26.955Z,7.00
2018-11-27T13:45:57.560Z,9.07
2018-11-27T13:48:27.703Z,7.03
2018-11-27T13:50:56.818Z,9.10
2018-11-27T13:53:27.865Z,6.83
2018-11-27T13:55:56.967Z,7.27
2018-11-27T13:58:26.070Z,9.43
2018-11-27T14:00:55.147Z,8.67
2018-11-27T14:03:24.217Z,8.00
2018-11-27T14:05:55.295Z,9.57
2018-11-27T14:08:25.421Z,8.93
2018-11-27T14:10:54.487Z,14.20
2018-11-27T14:13:24.485Z,14.70
2018-11-27T14:15:54.562Z,16.33
2018-11-27T14:18:23.584Z,13.90
2018-11-27T14:20:54.722Z,17.47
2018-11-27T14:23:23.729Z,20.57
2018-11-27T14:25:52.856Z,12.60
2018-11-27T14:28:21.949Z,11.30
2018-11-27T14:30:51.025Z,11.10
2018-11-27T14:33:20.057Z,12.27
2018-11-27T14:35:50.210Z,14.13
2018-11-27T14:38:19.291Z,12.10
2018-11-27T14:40:48.303Z,13.13
2018-11-27T14:43:17.365Z,12.83
2018-11-27T14:45:46.473Z,14.07
2018-11-27T14:48:15.533Z,13.10
2018-11-27T14:50:44.669Z,11.70
2018-11-27T14:53:13.788Z,14.73
2018-11-27T14:55:42.797Z,12.67
2018-11-27T14:58:15.052Z,14.17
2018-11-27T15:00:40.922Z,13.50
2018-11-27T15:03:09.932Z,12.83
2018-11-27T15:05:39.814Z,15.90
2018-11-27T15:08:11.980Z,19.73
2018-11-27T15:10:41.108Z,16.57
2018-11-27T15:13:11.240Z,19.17
2018-11-27T15:15:40.284Z,18.13
2018-11-27T15:18:09.400Z,21.03
2018-11-27T15:20:38.521Z,19.43
2018-11-27T15:23:07.596Z,18.77
2018-11-27T15:25:36.580Z,17.60
2018-11-27T15:28:05.737Z,19.23
2018-11-27T15:30:36.326Z,21.17
2018-11-27T15:33:06.905Z,18.03
2018-11-27T15:35:36.525Z,21.50
2018-11-27T15:38:05.946Z,23.13
2018-11-27T15:40:35.334Z,15.90
2018-11-27T15:43:04.490Z,16.63
2018-11-27T15:45:34.470Z,16.53
2018-11-27T15:48:04.931Z,17.93
2018-11-27T15:50:33.973Z,18.37
2018-11-27T15:53:03.023Z,14.60
2018-11-27T15:55:33.263Z,21.03
2018-11-27T15:58:09.739Z,19.33
2018-11-27T16:00:39.177Z,17.63
2018-11-27T16:03:08.540Z,19.27
2018-11-27T16:05:39.477Z,15.20
2018-11-27T16:08:08.927Z,16.30
2018-11-27T16:10:38.088Z,17.80
2018-11-27T16:13:07.611Z,17.33
2018-11-27T16:15:38.091Z,18.97
2018-11-27T16:18:09.285Z,20.87
2018-11-27T16:20:38.298Z,25.77
2018-11-27T16:23:07.583Z,18.03
2018-11-27T16:25:37.603Z,17.40
2018-11-27T16:28:07.656Z,17.67
2018-11-27T16:30:36.748Z,18.17
2018-11-27T16:33:06.317Z,14.63
2018-11-27T16:35:36.663Z,18.00
2018-11-27T16:38:06.676Z,16.70
2018-11-27T16:40:38.948Z,17.97
2018-11-27T16:43:08.634Z,19.73
2018-11-27T16:45:38.767Z,17.10
2018-11-27T16:48:08.900Z,16.87
2018-11-27T16:50:37.920Z,14.60
2018-11-27T16:53:07.371Z,15.77
2018-11-27T16:55:36.415Z,24.23
2018-11-27T16:58:05.741Z,26.97
2018-11-27T17:00:35.873Z,22.90
2018-11-27T17:03:08.283Z,24.73
2018-11-27T17:05:43.400Z,22.70
2018-11-27T17:08:13.587Z,21.20
2018-11-27T17:10:44.570Z,20.80
2018-11-27T17:13:14.862Z,25.67
2018-11-27T17:15:43.976Z,23.43
2018-11-27T17:18:12.881Z,22.53
2018-11-27T17:20:45.208Z,24.40
2018-11-27T17:23:15.548Z,21.63
2018-11-27T17:25:44.519Z,29.00
2018-11-27T17:28:22.988Z,24.17
2018-11-27T17:30:58.895Z,22.50
2018-11-27T17:33:37.274Z,18.53
2018-11-27T17:36:08.306Z,16.90
2018-11-27T17:38:37.847Z,14.77
2018-11-27T17:41:07.937Z,16.17
2018-11-27T17:43:37.106Z,16.13
2018-11-27T17:46:07.004Z,14.40
2018-11-27T17:48:36.048Z,10.73
2018-11-27T17:51:05.401Z,11.17
2018-11-27T17:53:34.439Z,10.40
2018-11-27T17:56:03.536Z,9.53
2018-11-27T17:58:32.588Z,10.17
2018-11-27T18:01:01.704Z,9.70
2018-11-27T18:03:30.711Z,8.73
2018-11-27T18:05:59.753Z,7.10
2018-11-27T18:08:29.507Z,7.77
2018-11-27T18:10:58.629Z,7.43
2018-11-27T18:13:28.505Z,7.83
2018-11-27T18:15:58.074Z,7.73
2018-11-27T18:18:27.114Z,9.37
2018-11-27T18:21:03.378Z,11.00
2018-11-27T18:23:33.061Z,11.13
2018-11-27T18:26:02.165Z,13.60
2018-11-27T18:28:31.132Z,18.27
2018-11-27T18:31:00.514Z,9.97
2018-11-27T18:33:29.542Z,13.77
2018-11-27T18:35:58.552Z,13.37
2018-11-27T18:38:27.240Z,12.57
2018-11-27T18:40:56.428Z,12.90
2018-11-27T18:43:25.808Z,12.03
2018-11-27T18:45:54.943Z,11.20
2018-11-27T18:48:25.168Z,11.50
2018-11-27T18:50:55.762Z,10.83
2018-11-27T18:53:25.508Z,12.30
2018-11-27T18:55:54.814Z,10.60
2018-11-27T18:58:23.793Z,14.60
2018-11-27T19:00:52.810Z,22.37
2018-11-27T19:03:23.869Z,18.43
2018-11-27T19:05:52.844Z,16.33
2018-11-27T19:08:21.829Z,18.17
2018-11-27T19:10:50.990Z,16.87
2018-11-27T19:13:20.103Z,18.33
2018-11-27T19:15:49.850Z,18.90
2018-11-27T19:18:22.311Z,20.73
2018-11-27T19:20:55.330Z,23.70
2018-11-27T19:23:26.262Z,23.23
2018-11-27T19:25:55.291Z,20.73
2018-11-27T19:28:24.503Z,23.10
2018-11-27T19:30:53.597Z,24.63
2018-11-27T19:33:22.546Z,33.80
2018-11-27T19:35:51.804Z,40.23
2018-11-27T19:38:21.252Z,39.87
2018-11-27T19:40:50.296Z,32.47
2018-11-27T19:43:19.537Z,27.83
2018-11-27T19:45:48.654Z,30.70
2018-11-27T19:48:17.883Z,28.87
2018-11-27T19:50:47.029Z,24.50
2018-11-27T19:53:16.600Z,24.03
2018-11-27T19:55:45.772Z,25.87
2018-11-27T19:58:15.494Z,23.50
2018-11-27T20:00:45.046Z,25.43
2018-11-27T20:03:14.629Z,28.40
2018-11-27T20:05:44.222Z,19.53
2018-11-27T20:08:16.705Z,30.37
2018-11-27T20:10:46.421Z,28.33
2018-11-27T20:13:16.240Z,26.50
2018-11-27T20:15:46.198Z,29.47
2018-11-27T20:18:16.156Z,42.23
2018-11-27T20:20:46.039Z,28.90
2018-11-27T20:23:15.965Z,26.97
2018-11-27T20:25:45.910Z,26.40
2018-11-27T20:28:15.843Z,41.57
2018-11-27T20:30:45.813Z,46.13
2018-11-27T20:33:15.721Z,43.20
2018-11-27T20:35:45.631Z,35.87
2018-11-27T20:38:14.954Z,29.50
2018-11-27T20:40:44.828Z,38.17
2018-11-27T20:43:14.171Z,34.23
2018-11-27T20:45:44.128Z,34.63
2018-11-27T20:48:18.299Z,30.87
2018-11-27T20:50:48.338Z,29.93
2018-11-27T20:53:18.070Z,31.30
2018-11-27T20:55:48.307Z,37.50
2018-11-27T20:58:18.520Z,41.27
2018-11-27T21:00:49.638Z,39.57
2018-11-27T21:03:19.333Z,36.60
2018-11-27T21:05:49.156Z,29.97
2018-11-27T21:08:18.898Z,27.53
2018-11-27T21:10:48.337Z,27.50
2018-11-27T21:13:17.814Z,30.10
2018-11-27T21:15:47.195Z,47.73
2018-11-27T21:18:16.930Z,39.90
2018-11-27T21:20:46.242Z,34.10
2018-11-27T21:23:15.630Z,31.23
2018-11-27T21:25:45.065Z,30.07
2018-11-27T21:28:16.674Z,34.07
2018-11-27T21:30:46.145Z,30.53
2018-11-27T21:33:15.312Z,36.50
2018-11-27T21:35:44.554Z,35.03
2018-11-27T21:38:13.738Z,35.10
2018-11-27T21:40:42.782Z,34.40
2018-11-27T21:43:11.780Z,34.60
2018-11-27T21:45:40.745Z,32.83
2018-11-27T21:48:09.890Z,27.47
2018-11-27T21:50:41.973Z,26.80
2018-11-27T21:53:11.098Z,25.47
2018-11-27T21:55:41.052Z,31.87
2018-11-27T21:58:10.101Z,29.60
2018-11-27T22:00:40.577Z,29.17
2018-11-27T22:03:10.280Z,30.37
2018-11-27T22:05:39.369Z,30.97
2018-11-27T22:08:08.776Z,33.63
2018-11-27T22:10:38.217Z,33.40
2018-11-27T22:13:10.125Z,33.53
2018-11-27T22:15:40.192Z,29.20
2018-11-27T22:18:10.143Z,28.97
2018-11-27T22:20:39.216Z,30.50
2018-11-27T22:23:08.886Z,30.17
2018-11-27T22:25:37.959Z,28.90
2018-11-27T22:28:08.147Z,31.17
2018-11-27T22:30:37.201Z,27.40
2018-11-27T22:33:07.769Z,30.23
2018-11-27T22:35:36.946Z,27.53
2018-11-27T22:38:06.975Z,30.90
2018-11-27T22:40:35.951Z,30.67
2018-11-27T22:43:05.682Z,49.73
2018-11-27T22:45:36.259Z,52.10
2018-11-27T22:48:06.106Z,37.50
2018-11-27T22:50:35.089Z,45.70
2018-11-27T22:53:04.096Z,43.50
2018-11-27T22:55:33.033Z,27.13
2018-11-27T22:58:02.046Z,20.53
2018-11-27T23:00:36.554Z,20.63
2018-11-27T23:03:05.669Z,20.30
2018-11-27T23:05:34.763Z,21.07
2018-11-27T23:08:03.795Z,20.10
2018-11-27T23:10:35.345Z,17.93
2018-11-27T23:13:04.749Z,19.17
2018-11-27T23:15:33.767Z,21.77
2018-11-27T23:18:02.765Z,22.43
2018-11-27T23:20:31.921Z,21.07
2018-11-27T23:23:00.991Z,22.03
2018-11-27T23:25:29.967Z,26.03
2018-11-27T23:27:58.992Z,29.43
2018-11-27T23:30:28.012Z,42.90
2018-11-27T23:32:57.091Z,48.30
2018-11-27T23:35:25.919Z,35.47
2018-11-27T23:37:54.962Z,35.13
2018-11-27T23:40:23.517Z,41.57
2018-11-27T23:42:52.506Z,38.20
2018-11-27T23:45:23.135Z,35.37
2018-11-27T23:47:52.218Z,26.03
2018-11-27T23:50:22.042Z,29.10
2018-11-27T23:52:51.261Z,32.80
2018-11-27T23:55:20.671Z,32.20
2018-11-27T23:57:50.042Z,38.83
